LFPG 280930Z 26012KT 9999 BKN028 22/14 Q0998 BECMG FEW030TCU

ElémentsDécodage
LFPG Station météo située sur l'aérodrome de PARIS Charles-de-Gaulle
280930Z émis le 28 du mois à 09h30 UTC
26012KT vent du 260°, 12 noeuds
9999 visibilité horizontale supérieure à 10 Km
BKN028 nuages morcelés (5/8 à 7/8) à 2800 pieds
22/14 température 22°C, point de rosée 14°C
 soit une humidité relative de 61%
Q0998 la pression au niveau de la mer (QNH) est de 998 hPa
BECMG fluctuation du temps prévue
FEW030TCU nuages rares (1/8 à 2/8) à 3000 pieds
 présence de cumulus congestus